createdAt,value
2023-03-18T00:00:23.556Z,6.80
2023-03-18T00:01:23.569Z,6.80
2023-03-18T00:02:23.603Z,6.50
2023-03-18T00:03:23.535Z,6.70
2023-03-18T00:04:23.500Z,6.50
2023-03-18T00:05:23.485Z,6.40
2023-03-18T00:06:23.540Z,7.20
2023-03-18T00:07:23.471Z,6.40
2023-03-18T00:08:23.429Z,6.90
2023-03-18T00:09:23.465Z,6.50
2023-03-18T00:10:23.367Z,6.50
2023-03-18T00:11:23.429Z,7.10
2023-03-18T00:12:23.409Z,6.40
2023-03-18T00:13:23.388Z,6.80
2023-03-18T00:14:23.351Z,6.80
2023-03-18T00:15:23.350Z,7.10
2023-03-18T00:16:23.329Z,6.80
2023-03-18T00:17:23.343Z,7.10
2023-03-18T00:18:23.406Z,6.90
2023-03-18T00:19:23.326Z,7.00
2023-03-18T00:20:23.286Z,7.10
2023-03-18T00:21:23.271Z,6.70
2023-03-18T00:22:23.228Z,7.30
2023-03-18T00:23:23.267Z,7.20
2023-03-18T00:24:23.263Z,7.10
2023-03-18T00:25:23.232Z,6.60
2023-03-18T00:26:23.242Z,6.70
2023-03-18T00:27:23.154Z,6.90
2023-03-18T00:28:23.195Z,7.40
2023-03-18T00:29:23.172Z,7.20
2023-03-18T00:30:23.208Z,7.00
2023-03-18T00:31:23.231Z,7.40
2023-03-18T00:32:23.174Z,7.10
2023-03-18T00:33:23.090Z,7.00
2023-03-18T00:34:23.130Z,6.80
2023-03-18T00:35:23.054Z,6.80
2023-03-18T00:36:23.202Z,7.30
2023-03-18T00:37:23.051Z,7.00
2023-03-18T00:38:23.065Z,7.20
2023-03-18T00:39:23.010Z,7.00
2023-03-18T00:40:23.015Z,7.40
2023-03-18T00:41:23.004Z,7.60
2023-03-18T00:42:23.007Z,7.40
2023-03-18T00:43:22.976Z,7.60
2023-03-18T00:44:23.009Z,7.20
2023-03-18T00:45:22.928Z,7.60
2023-03-18T00:46:22.977Z,7.00
2023-03-18T00:47:22.889Z,7.60
2023-03-18T00:48:22.930Z,7.70
2023-03-18T00:49:22.904Z,7.30
2023-03-18T00:50:22.879Z,7.70
2023-03-18T00:51:22.880Z,8.00
2023-03-18T00:52:22.879Z,8.20
2023-03-18T00:53:22.819Z,8.00
2023-03-18T00:54:22.878Z,8.30
2023-03-18T00:55:22.817Z,8.30
2023-03-18T00:56:22.833Z,8.80
2023-03-18T00:57:22.763Z,8.60
2023-03-18T00:58:22.816Z,8.50
2023-03-18T00:59:22.739Z,8.90
2023-03-18T01:00:22.869Z,8.30
2023-03-18T01:01:22.836Z,8.10
2023-03-18T01:02:22.801Z,8.40
2023-03-18T01:03:22.717Z,8.40
2023-03-18T01:04:22.724Z,8.80
2023-03-18T01:05:22.645Z,9.70
2023-03-18T01:06:22.776Z,9.10
2023-03-18T01:07:22.625Z,10.00
2023-03-18T01:08:22.648Z,10.40
2023-03-18T01:09:22.628Z,10.40
2023-03-18T01:10:22.607Z,10.90
2023-03-18T01:11:22.596Z,11.30
2023-03-18T01:12:22.654Z,11.50
2023-03-18T01:13:22.550Z,11.30
2023-03-18T01:14:22.607Z,11.80
2023-03-18T01:15:22.527Z,11.50
2023-03-18T01:16:22.560Z,11.90
2023-03-18T01:17:22.526Z,12.80
2023-03-18T01:18:22.622Z,13.20
2023-03-18T01:19:22.488Z,13.40
2023-03-18T01:20:22.526Z,13.30
2023-03-18T01:21:22.451Z,12.60
2023-03-18T01:22:22.492Z,12.60
2023-03-18T01:23:22.412Z,13.50
2023-03-18T01:24:22.542Z,13.40
2023-03-18T01:25:22.416Z,12.90
2023-03-18T01:26:22.428Z,13.20
2023-03-18T01:27:22.364Z,13.40
2023-03-18T01:28:22.410Z,13.00
2023-03-18T01:29:22.373Z,13.60
2023-03-18T01:30:22.396Z,13.30
2023-03-18T01:31:22.394Z,13.40
2023-03-18T01:32:22.380Z,13.10
2023-03-18T01:33:22.306Z,14.00
2023-03-18T01:34:22.342Z,14.00
2023-03-18T01:35:22.251Z,13.90
2023-03-18T01:36:22.296Z,14.40
2023-03-18T01:37:28.197Z,13.40
2023-03-18T01:38:22.253Z,13.70
2023-03-18T01:39:22.247Z,14.60
2023-03-18T01:40:22.185Z,14.40
2023-03-18T01:41:22.209Z,13.90
2023-03-18T01:42:22.368Z,14.20
2023-03-18T01:43:22.193Z,13.90
2023-03-18T01:44:22.124Z,14.60
2023-03-18T01:45:22.173Z,14.50
2023-03-18T01:46:22.125Z,15.00
2023-03-18T01:47:22.116Z,15.00
2023-03-18T01:48:22.229Z,15.50
2023-03-18T01:49:22.094Z,14.70
2023-03-18T01:50:22.085Z,15.00
2023-03-18T01:51:22.088Z,14.90
2023-03-18T01:52:22.035Z,15.20
2023-03-18T01:53:22.059Z,15.50
2023-03-18T01:54:22.038Z,14.90
2023-03-18T01:55:22.009Z,15.00
2023-03-18T01:56:21.984Z,15.60
2023-03-18T01:57:22.004Z,15.30
2023-03-18T01:58:21.938Z,16.30
2023-03-18T01:59:21.979Z,15.80
2023-03-18T02:00:21.974Z,15.80
2023-03-18T02:01:21.976Z,16.40
2023-03-18T02:02:21.909Z,16.10
2023-03-18T02:03:21.918Z,15.50
2023-03-18T02:04:21.858Z,15.60
2023-03-18T02:05:21.898Z,15.10
2023-03-18T02:06:21.851Z,16.00
2023-03-18T02:07:21.856Z,16.20
2023-03-18T02:08:21.826Z,15.60
2023-03-18T02:09:21.831Z,15.80
2023-03-18T02:10:21.790Z,16.30
2023-03-18T02:11:21.811Z,15.10
2023-03-18T02:12:21.792Z,15.20
2023-03-18T02:13:21.735Z,15.60
2023-03-18T02:14:21.789Z,15.80
2023-03-18T02:15:21.739Z,16.20
2023-03-18T02:16:21.732Z,16.00
2023-03-18T02:17:21.711Z,16.00
2023-03-18T02:18:21.815Z,15.60
2023-03-18T02:19:21.655Z,15.30
2023-03-18T02:20:21.683Z,15.90
2023-03-18T02:21:21.659Z,15.30
2023-03-18T02:22:21.671Z,16.00
2023-03-18T02:23:21.632Z,15.10
2023-03-18T02:24:21.670Z,15.30
2023-03-18T02:25:21.601Z,15.20
2023-03-18T02:26:21.589Z,15.30
2023-03-18T02:27:21.559Z,15.40
2023-03-18T02:28:21.608Z,15.60
2023-03-18T02:29:21.554Z,14.70
2023-03-18T02:30:21.567Z,14.90
2023-03-18T02:31:21.521Z,15.30
2023-03-18T02:32:21.545Z,15.00
2023-03-18T02:33:21.489Z,14.70
2023-03-18T02:34:21.498Z,15.40
2023-03-18T02:35:21.475Z,13.80
2023-03-18T02:36:21.500Z,14.50
2023-03-18T02:37:21.428Z,14.40
2023-03-18T02:38:21.425Z,14.50
2023-03-18T02:39:21.381Z,14.30
2023-03-18T02:40:21.430Z,15.50
2023-03-18T02:41:21.354Z,14.60
2023-03-18T02:42:21.440Z,15.00
2023-03-18T02:43:21.356Z,15.10
2023-03-18T02:44:21.350Z,14.40
2023-03-18T02:45:21.297Z,14.70
2023-03-18T02:46:21.429Z,14.50
2023-03-18T02:47:21.313Z,15.10
2023-03-18T02:48:21.424Z,15.00
2023-03-18T02:49:22.210Z,15.00
2023-03-18T02:50:21.258Z,15.50
2023-03-18T02:51:21.214Z,15.00
2023-03-18T02:52:21.265Z,15.40
2023-03-18T02:53:21.199Z,15.00
2023-03-18T02:54:21.253Z,15.40
2023-03-18T02:55:21.185Z,15.20
2023-03-18T02:56:21.182Z,15.30
2023-03-18T02:57:21.173Z,15.20
2023-03-18T02:58:21.165Z,14.60
2023-03-18T02:59:21.128Z,15.40
2023-03-18T03:02:44.081Z,15.20
2023-03-18T03:03:44.056Z,15.20
2023-03-18T03:04:43.937Z,15.50
2023-03-18T03:05:43.993Z,16.00
2023-03-18T03:06:43.896Z,16.30
2023-03-18T03:07:43.966Z,15.90
2023-03-18T03:08:43.867Z,16.20
2023-03-18T03:09:43.881Z,16.10
2023-03-18T03:10:43.861Z,16.70
2023-03-18T03:11:43.931Z,15.40
2023-03-18T03:12:43.800Z,15.70
2023-03-18T03:13:43.827Z,15.60
2023-03-18T03:14:43.807Z,15.50
2023-03-18T03:15:43.819Z,15.70
2023-03-18T03:16:43.811Z,16.10
2023-03-18T03:17:43.833Z,15.40
2023-03-18T03:18:43.734Z,15.80
2023-03-18T03:19:43.777Z,15.50
2023-03-18T03:20:43.705Z,15.80
2023-03-18T03:21:43.723Z,15.90
2023-03-18T03:22:43.706Z,15.90
2023-03-18T03:23:43.719Z,15.60
2023-03-18T03:24:43.681Z,16.00
2023-03-18T03:25:43.681Z,14.90
2023-03-18T03:26:43.674Z,15.10
2023-03-18T03:27:43.635Z,16.40
2023-03-18T03:28:43.617Z,15.60
2023-03-18T03:29:43.669Z,15.70
2023-03-18T03:30:43.604Z,16.00
2023-03-18T03:31:43.641Z,16.40
2023-03-18T03:32:43.570Z,15.90
2023-03-18T03:33:43.586Z,16.50
2023-03-18T03:34:43.567Z,16.30
2023-03-18T03:35:43.696Z,16.20
2023-03-18T03:36:43.528Z,16.70
2023-03-18T03:37:43.554Z,16.10
2023-03-18T03:38:43.513Z,16.30
2023-03-18T03:39:43.515Z,16.00
2023-03-18T03:40:43.446Z,16.50
2023-03-18T03:41:43.510Z,16.50
2023-03-18T03:42:43.467Z,16.00
2023-03-18T03:43:43.486Z,15.50
2023-03-18T03:44:43.392Z,17.30
2023-03-18T03:45:43.400Z,16.40
2023-03-18T03:46:43.440Z,17.20
2023-03-18T03:47:43.500Z,16.60
2023-03-18T03:48:43.358Z,16.90
2023-03-18T03:49:43.379Z,16.60
2023-03-18T03:50:43.319Z,16.60
2023-03-18T03:51:43.364Z,16.70
2023-03-18T03:52:43.283Z,17.00
2023-03-18T03:53:43.321Z,16.80
2023-03-18T03:54:43.290Z,16.60
2023-03-18T03:55:43.266Z,17.30
2023-03-18T03:56:43.257Z,16.90
2023-03-18T03:57:43.270Z,16.80
2023-03-18T03:58:43.244Z,16.90
2023-03-18T03:59:43.286Z,16.90
2023-03-18T04:00:43.176Z,17.30
2023-03-18T04:01:43.203Z,17.60
2023-03-18T04:02:43.226Z,17.20
2023-03-18T04:03:43.162Z,17.00
2023-03-18T04:04:43.153Z,16.70
2023-03-18T04:05:43.280Z,17.10
2023-03-18T04:06:43.094Z,16.90
2023-03-18T04:07:43.145Z,16.40
2023-03-18T04:08:43.088Z,15.90
2023-03-18T04:09:43.097Z,16.10
2023-03-18T04:10:43.077Z,15.80
2023-03-18T04:11:43.162Z,16.20
2023-03-18T04:12:43.044Z,16.10
2023-03-18T04:13:43.066Z,15.90
2023-03-18T04:14:43.011Z,15.70
2023-03-18T04:15:43.038Z,15.60
2023-03-18T04:16:42.984Z,16.10
2023-03-18T04:17:43.122Z,16.20
2023-03-18T04:18:42.943Z,15.80
2023-03-18T04:19:42.967Z,15.80
2023-03-18T04:20:42.905Z,16.00
2023-03-18T04:21:42.918Z,17.30
2023-03-18T04:22:42.911Z,16.20
2023-03-18T04:23:42.925Z,17.10
2023-03-18T04:24:42.876Z,16.20
2023-03-18T04:25:42.954Z,16.30
2023-03-18T04:26:42.809Z,15.90
2023-03-18T04:27:42.860Z,16.70
2023-03-18T04:28:42.792Z,17.50
2023-03-18T04:29:42.852Z,17.80
2023-03-18T04:30:42.792Z,16.70
2023-03-18T04:31:42.890Z,17.10
2023-03-18T04:32:42.727Z,17.40
2023-03-18T04:33:42.803Z,16.60
2023-03-18T04:34:42.751Z,16.60
2023-03-18T04:35:42.931Z,16.50
2023-03-18T04:36:42.709Z,16.80
2023-03-18T04:37:42.719Z,16.70
2023-03-18T04:38:42.668Z,16.70
2023-03-18T04:39:42.702Z,17.20
2023-03-18T04:40:42.625Z,16.90
2023-03-18T04:41:42.754Z,16.30
2023-03-18T04:42:42.652Z,16.60
2023-03-18T04:43:42.623Z,16.00
2023-03-18T04:44:42.602Z,15.90
2023-03-18T04:45:42.611Z,16.30
2023-03-18T04:46:42.579Z,16.80
2023-03-18T04:47:42.674Z,16.60
2023-03-18T04:48:42.555Z,16.80
2023-03-18T04:49:42.569Z,16.40
2023-03-18T04:50:42.496Z,15.90
2023-03-18T04:51:42.553Z,16.50
2023-03-18T04:52:42.464Z,17.40
2023-03-18T04:53:42.585Z,16.60
2023-03-18T04:54:42.463Z,17.50
2023-03-18T04:55:42.456Z,16.80
2023-03-18T04:56:42.443Z,16.60
2023-03-18T04:57:42.446Z,16.50
2023-03-18T04:58:42.399Z,16.40
2023-03-18T04:59:42.528Z,15.80
2023-03-18T05:00:42.359Z,17.80
2023-03-18T05:01:42.379Z,16.00
2023-03-18T05:02:42.360Z,16.90
2023-03-18T05:03:42.531Z,17.10
2023-03-18T05:04:42.328Z,15.60
2023-03-18T05:05:42.447Z,17.50
2023-03-18T05:06:42.265Z,16.50
2023-03-18T05:07:42.325Z,16.40
2023-03-18T05:08:42.256Z,16.90
2023-03-18T05:09:42.266Z,15.60
2023-03-18T05:10:42.239Z,16.00
2023-03-18T05:11:42.363Z,16.20
2023-03-18T05:12:42.233Z,15.90
2023-03-18T05:13:42.243Z,16.60
2023-03-18T05:14:42.176Z,15.80
2023-03-18T05:15:42.213Z,16.20
2023-03-18T05:16:42.181Z,15.90
2023-03-18T05:17:42.263Z,15.20
2023-03-18T05:18:42.145Z,15.80
2023-03-18T05:19:42.164Z,15.20
2023-03-18T05:20:42.086Z,15.20
2023-03-18T05:21:42.451Z,15.60
2023-03-18T05:22:42.666Z,14.70
2023-03-18T05:23:42.145Z,15.80
2023-03-18T05:24:42.063Z,15.00
2023-03-18T05:25:42.082Z,15.30
2023-03-18T05:26:42.009Z,15.10
2023-03-18T05:27:42.052Z,15.30
2023-03-18T05:28:41.978Z,15.30
2023-03-18T05:29:42.038Z,15.60
2023-03-18T05:30:42.102Z,14.90
2023-03-18T05:31:41.980Z,15.00
2023-03-18T05:32:41.963Z,15.20
2023-03-18T05:33:42.010Z,15.60
2023-03-18T05:34:41.892Z,15.50
2023-03-18T05:35:41.992Z,15.10
2023-03-18T05:36:42.249Z,15.60
2023-03-18T05:37:41.907Z,15.10
2023-03-18T05:38:41.840Z,14.70
2023-03-18T05:39:44.638Z,14.90
2023-03-18T05:40:41.810Z,15.50
2023-03-18T05:41:41.868Z,14.90
2023-03-18T05:42:57.131Z,16.10
2023-03-18T05:43:42.804Z,17.50
2023-03-18T05:44:41.789Z,17.80
2023-03-18T05:45:41.836Z,16.90
2023-03-18T05:46:41.734Z,16.30
2023-03-18T05:47:42.719Z,16.30
2023-03-18T05:48:41.690Z,16.70
2023-03-18T05:49:41.763Z,16.50
2023-03-18T05:50:42.034Z,15.80
2023-03-18T05:51:41.729Z,16.80
2023-03-18T05:52:41.657Z,16.50
2023-03-18T05:53:41.711Z,16.30
2023-03-18T05:54:41.908Z,16.30
2023-03-18T05:55:41.636Z,15.20
2023-03-18T05:56:41.624Z,16.50
2023-03-18T05:57:41.656Z,16.00
2023-03-18T05:58:41.643Z,17.00
2023-03-18T05:59:41.831Z,16.80
2023-03-18T06:00:41.606Z,17.80
2023-03-18T06:01:41.595Z,18.20
2023-03-18T06:02:41.630Z,17.20
2023-03-18T06:03:41.571Z,19.20
2023-03-18T06:04:41.530Z,17.80
2023-03-18T06:05:41.679Z,16.90
2023-03-18T06:06:41.485Z,17.40
2023-03-18T06:07:41.498Z,18.40
2023-03-18T06:08:41.520Z,17.00
2023-03-18T06:09:41.441Z,17.30
2023-03-18T06:10:41.522Z,17.80
2023-03-18T06:11:41.509Z,17.40
2023-03-18T06:12:41.474Z,17.10
2023-03-18T06:13:41.402Z,17.00
2023-03-18T06:14:41.398Z,17.30
2023-03-18T06:15:41.386Z,16.80
2023-03-18T06:16:41.396Z,17.40
2023-03-18T06:17:41.384Z,17.70
2023-03-18T06:18:41.374Z,17.10
2023-03-18T06:19:41.298Z,17.10
2023-03-18T06:20:41.340Z,17.50
2023-03-18T06:21:41.304Z,16.50
2023-03-18T06:22:41.297Z,17.10
2023-03-18T06:23:41.346Z,16.70
2023-03-18T06:24:41.289Z,16.60
2023-03-18T06:25:41.237Z,16.90
2023-03-18T06:26:41.265Z,17.10
2023-03-18T06:27:41.235Z,16.80
2023-03-18T06:28:41.207Z,17.80
2023-03-18T06:29:41.280Z,17.00
2023-03-18T06:30:41.208Z,16.00
2023-03-18T06:31:41.153Z,17.10
2023-03-18T06:32:41.245Z,16.00
2023-03-18T06:33:41.167Z,15.60
2023-03-18T06:34:41.134Z,17.00
2023-03-18T06:35:41.199Z,16.40
2023-03-18T06:36:41.094Z,16.40
2023-03-18T06:37:41.052Z,16.70
2023-03-18T06:38:41.130Z,16.80
2023-03-18T06:39:41.391Z,16.90
2023-03-18T06:40:41.050Z,17.60
2023-03-18T06:41:41.035Z,16.80
2023-03-18T06:42:41.040Z,17.50
2023-03-18T06:43:40.978Z,16.10
2023-03-18T06:44:41.009Z,18.50
2023-03-18T06:45:40.985Z,16.80
2023-03-18T06:46:43.635Z,16.20
2023-03-18T06:47:41.032Z,16.90
2023-03-18T06:48:40.936Z,17.00
2023-03-18T06:49:40.899Z,16.60
2023-03-18T06:50:40.934Z,17.10
2023-03-18T06:51:40.867Z,16.60
2023-03-18T06:52:40.903Z,15.60
2023-03-18T06:53:40.974Z,16.30
2023-03-18T06:54:40.840Z,16.00
2023-03-18T06:55:40.811Z,16.50
2023-03-18T06:56:40.836Z,17.30
2023-03-18T06:57:40.806Z,17.20
2023-03-18T06:58:40.801Z,16.50
2023-03-18T06:59:40.825Z,16.60
2023-03-18T07:00:40.800Z,17.00
2023-03-18T07:01:40.763Z,16.80
2023-03-18T07:02:40.756Z,16.30
2023-03-18T07:03:40.695Z,16.90
2023-03-18T07:04:40.771Z,16.60
2023-03-18T07:05:40.841Z,16.90
2023-03-18T07:06:40.710Z,17.40
2023-03-18T07:07:40.677Z,18.20
2023-03-18T07:08:40.665Z,17.10
2023-03-18T07:09:40.633Z,17.50
2023-03-18T07:10:40.666Z,17.60
2023-03-18T07:11:40.713Z,16.60
2023-03-18T07:12:40.638Z,17.20
2023-03-18T07:13:40.590Z,16.90
2023-03-18T07:14:40.574Z,16.30
2023-03-18T07:15:40.587Z,16.10
2023-03-18T07:16:40.560Z,17.00
2023-03-18T07:17:40.542Z,16.10
2023-03-18T07:18:40.576Z,15.80
2023-03-18T07:19:40.492Z,15.70
2023-03-18T07:20:40.531Z,15.40
2023-03-18T07:21:40.491Z,15.40
2023-03-18T07:22:40.466Z,15.50
2023-03-18T07:23:40.571Z,15.70
2023-03-18T07:24:40.447Z,16.50
2023-03-18T07:25:40.393Z,16.00
2023-03-18T07:26:40.452Z,16.20
2023-03-18T07:27:40.396Z,16.40
2023-03-18T07:28:40.385Z,15.50
2023-03-18T07:29:40.375Z,15.00
2023-03-18T07:30:40.387Z,15.90
2023-03-18T07:31:40.427Z,15.50
2023-03-18T07:32:40.426Z,15.70
2023-03-18T07:33:40.318Z,15.30
2023-03-18T07:34:40.313Z,15.70
2023-03-18T07:35:40.346Z,14.60
2023-03-18T07:36:40.279Z,14.60
2023-03-18T07:37:40.259Z,15.50
2023-03-18T07:38:40.284Z,15.70
2023-03-18T07:39:40.223Z,15.30
2023-03-18T07:40:40.259Z,14.80
2023-03-18T07:41:40.336Z,14.70
2023-03-18T07:42:40.201Z,14.90
2023-03-18T07:43:40.173Z,14.50
2023-03-18T07:44:40.201Z,15.50
2023-03-18T07:45:40.182Z,14.90
2023-03-18T07:46:40.191Z,15.20
2023-03-18T07:47:40.168Z,15.30
2023-03-18T07:48:40.139Z,15.00
2023-03-18T07:49:40.082Z,15.00
2023-03-18T07:50:40.122Z,16.00
2023-03-18T07:51:40.064Z,15.90
2023-03-18T07:52:40.096Z,15.20
2023-03-18T07:53:40.082Z,15.70
2023-03-18T07:54:40.083Z,15.80
2023-03-18T07:55:40.030Z,15.80
2023-03-18T07:56:40.050Z,16.50
2023-03-18T07:57:39.983Z,17.00
2023-03-18T07:58:40.022Z,17.50
2023-03-18T07:59:40.039Z,17.70
2023-03-18T08:00:39.964Z,17.20
2023-03-18T08:01:39.920Z,17.50
2023-03-18T08:02:40.352Z,16.90
2023-03-18T08:03:39.932Z,18.50
2023-03-18T08:04:39.962Z,18.20
2023-03-18T08:05:40.000Z,20.10
2023-03-18T08:06:39.894Z,18.20
2023-03-18T08:07:39.858Z,18.80
2023-03-18T08:08:39.844Z,18.40
2023-03-18T08:09:39.818Z,19.30
2023-03-18T08:10:39.857Z,18.10
2023-03-18T08:11:39.815Z,18.50
2023-03-18T08:12:52.128Z,18.20
2023-03-18T08:13:40.784Z,18.80
2023-03-18T08:14:39.773Z,18.30
2023-03-18T08:15:39.755Z,17.90
2023-03-18T08:16:39.858Z,17.60
2023-03-18T08:17:39.729Z,18.00
2023-03-18T08:18:39.739Z,17.80
2023-03-18T08:19:39.652Z,18.00
2023-03-18T08:20:39.716Z,17.40
2023-03-18T08:21:39.769Z,17.70
2023-03-18T08:22:39.681Z,18.00
2023-03-18T08:23:39.771Z,17.60
2023-03-18T08:24:39.675Z,17.20
2023-03-18T08:25:39.584Z,17.90
2023-03-18T08:26:39.631Z,17.40
2023-03-18T08:27:39.563Z,16.80
2023-03-18T08:28:39.691Z,17.00
2023-03-18T08:29:39.627Z,16.90
2023-03-18T08:30:39.559Z,17.40
2023-03-18T08:31:39.554Z,17.00
2023-03-18T08:32:39.685Z,17.40
2023-03-18T08:33:39.536Z,17.80
2023-03-18T08:34:39.502Z,18.60
2023-03-18T08:35:39.542Z,17.30
2023-03-18T08:36:39.478Z,17.40
2023-03-18T08:37:39.426Z,17.70
2023-03-18T08:38:39.558Z,17.30
2023-03-18T08:39:39.406Z,17.10
2023-03-18T08:40:39.436Z,17.00
2023-03-18T08:41:39.426Z,17.10
2023-03-18T08:42:39.418Z,17.50
2023-03-18T08:43:39.365Z,17.40
2023-03-18T08:44:39.388Z,18.20
2023-03-18T08:45:39.414Z,17.70
2023-03-18T08:46:39.377Z,16.50
2023-03-18T08:47:39.358Z,16.30
2023-03-18T08:48:39.324Z,16.20
2023-03-18T08:49:39.289Z,15.70
2023-03-18T08:50:39.315Z,16.80
2023-03-18T08:51:39.246Z,17.00
2023-03-18T08:52:39.286Z,16.10
2023-03-18T08:53:39.258Z,16.60
2023-03-18T08:54:39.236Z,16.10
2023-03-18T08:55:39.216Z,15.10
2023-03-18T08:56:39.206Z,16.10
2023-03-18T08:57:39.166Z,16.20
2023-03-18T08:58:39.201Z,16.40
2023-03-18T08:59:39.181Z,16.20
2023-03-18T09:00:39.189Z,15.70
2023-03-18T09:01:39.142Z,16.10
2023-03-18T09:02:39.134Z,15.70
2023-03-18T09:03:39.125Z,17.10
2023-03-18T09:04:39.121Z,15.80
2023-03-18T09:05:39.312Z,16.10
2023-03-18T09:06:39.084Z,17.00
2023-03-18T09:07:39.063Z,16.30
2023-03-18T09:08:39.048Z,16.70
2023-03-18T09:09:43.801Z,17.70
2023-03-18T09:10:40.070Z,17.50
2023-03-18T09:11:38.985Z,17.20
2023-03-18T09:12:39.024Z,17.60
2023-03-18T09:13:39.291Z,17.90
2023-03-18T09:14:38.997Z,17.90
2023-03-18T09:15:38.957Z,17.50
2023-03-18T09:16:39.044Z,17.80
2023-03-18T09:17:53.408Z,17.90
2023-03-18T09:18:41.170Z,18.10
2023-03-18T09:19:38.898Z,17.80
2023-03-18T09:20:38.981Z,17.50
2023-03-18T09:21:38.881Z,17.60
2023-03-18T09:22:38.889Z,18.10
2023-03-18T09:23:38.915Z,18.40
2023-03-18T09:24:38.838Z,18.00
2023-03-18T09:25:38.801Z,18.10
2023-03-18T09:26:38.824Z,18.00
2023-03-18T09:27:38.792Z,18.00
2023-03-18T09:28:38.842Z,17.70
2023-03-18T09:29:38.787Z,17.30
2023-03-18T09:30:38.796Z,16.90
2023-03-18T09:31:38.752Z,18.60
2023-03-18T09:32:38.761Z,18.70
2023-03-18T09:33:38.698Z,18.70
2023-03-18T09:34:38.756Z,18.60
2023-03-18T09:35:38.741Z,19.80
2023-03-18T09:36:38.667Z,20.10
2023-03-18T09:37:38.630Z,18.90
2023-03-18T09:38:38.676Z,18.40
2023-03-18T09:39:38.606Z,18.40
2023-03-18T09:40:38.836Z,19.10
2023-03-18T09:41:38.596Z,18.40
2023-03-18T09:42:38.582Z,19.20
2023-03-18T09:43:38.572Z,19.80
2023-03-18T09:44:38.553Z,21.50
2023-03-18T09:45:38.512Z,21.60
2023-03-18T09:46:38.761Z,22.00
2023-03-18T09:47:38.509Z,22.30
2023-03-18T09:48:38.541Z,23.50
2023-03-18T09:49:38.488Z,22.10
2023-03-18T09:50:38.475Z,22.10
2023-03-18T09:51:38.445Z,22.20
2023-03-18T09:52:38.522Z,23.60
2023-03-18T09:53:38.445Z,22.70
2023-03-18T09:54:38.444Z,21.80
2023-03-18T09:55:38.415Z,22.80
2023-03-18T09:56:38.407Z,22.60
2023-03-18T09:57:38.363Z,23.80
2023-03-18T09:58:38.456Z,25.20
2023-03-18T09:59:38.337Z,24.10
2023-03-18T10:00:38.406Z,25.30
2023-03-18T10:01:38.348Z,24.10
2023-03-18T10:02:38.322Z,25.10
2023-03-18T10:03:38.321Z,24.00
2023-03-18T10:04:38.400Z,25.40
2023-03-18T10:05:38.257Z,24.30
2023-03-18T10:06:38.287Z,24.70
2023-03-18T10:07:38.270Z,24.50
2023-03-18T10:08:38.236Z,24.10
2023-03-18T10:09:38.213Z,24.90
2023-03-18T10:10:38.359Z,24.40
2023-03-18T10:11:38.166Z,24.30
2023-03-18T10:12:38.231Z,24.70
2023-03-18T10:13:38.185Z,27.50
2023-03-18T10:14:38.152Z,26.80
2023-03-18T10:15:38.235Z,26.30
2023-03-18T10:16:38.174Z,24.00
2023-03-18T10:17:38.114Z,24.30
2023-03-18T10:18:38.110Z,24.50
2023-03-18T10:19:38.044Z,26.10
2023-03-18T10:20:38.082Z,26.90
2023-03-18T10:21:38.042Z,25.60
2023-03-18T10:22:38.160Z,26.10
2023-03-18T10:23:38.017Z,25.30
2023-03-18T10:24:38.014Z,26.30
2023-03-18T10:25:38.017Z,24.20
2023-03-18T10:26:37.968Z,25.70
2023-03-18T10:27:37.994Z,26.20
2023-03-18T10:28:37.951Z,27.20
2023-03-18T10:29:37.942Z,25.70
2023-03-18T10:30:37.935Z,25.00
2023-03-18T10:31:37.975Z,23.10
2023-03-18T10:32:49.084Z,22.90
2023-03-18T10:33:39.098Z,26.00
2023-03-18T10:34:37.846Z,24.70
2023-03-18T10:35:37.914Z,23.40
2023-03-18T10:36:37.813Z,24.00
2023-03-18T10:37:37.834Z,22.00
2023-03-18T10:38:37.822Z,23.80
2023-03-18T10:39:37.945Z,24.30
2023-03-18T10:40:37.801Z,25.00
2023-03-18T10:41:37.800Z,25.00
2023-03-18T10:42:37.765Z,23.70
2023-03-18T10:43:37.756Z,23.20
2023-03-18T10:44:37.742Z,23.90
2023-03-18T10:45:37.884Z,23.80
2023-03-18T10:46:37.830Z,23.30
2023-03-18T10:47:37.726Z,23.10
2023-03-18T10:48:37.659Z,22.70
2023-03-18T10:49:37.681Z,23.50
2023-03-18T10:50:37.657Z,23.20
2023-03-18T10:51:37.687Z,23.80
2023-03-18T10:52:37.646Z,22.40
2023-03-18T10:53:37.649Z,21.20
2023-03-18T10:54:37.589Z,21.90
2023-03-18T10:55:37.595Z,21.20
2023-03-18T10:56:37.583Z,21.80
2023-03-18T10:57:37.620Z,21.60
2023-03-18T10:58:37.524Z,20.80
2023-03-18T10:59:37.563Z,21.70
2023-03-18T11:00:37.502Z,21.40
2023-03-18T11:01:37.544Z,24.20
2023-03-18T11:02:37.530Z,22.40
2023-03-18T11:03:37.604Z,21.80
2023-03-18T11:04:37.472Z,21.70
2023-03-18T11:05:37.502Z,21.40
2023-03-18T11:06:37.418Z,21.80
2023-03-18T11:07:38.131Z,22.30
2023-03-18T11:08:37.394Z,22.20
2023-03-18T11:09:37.477Z,22.80
2023-03-18T11:10:37.384Z,22.80
2023-03-18T11:11:37.405Z,24.20
2023-03-18T11:12:37.338Z,23.70
2023-03-18T11:13:37.350Z,23.40
2023-03-18T11:14:37.437Z,23.60
2023-03-18T11:15:37.430Z,24.90
2023-03-18T11:16:37.308Z,25.40
2023-03-18T11:17:37.324Z,24.10
2023-03-18T11:18:37.252Z,25.30
2023-03-18T11:19:37.299Z,25.10
2023-03-18T11:20:37.226Z,25.30
2023-03-18T11:21:37.284Z,26.50
2023-03-18T11:22:37.228Z,24.70
2023-03-18T11:23:37.213Z,24.90
2023-03-18T11:24:37.207Z,25.00
2023-03-18T11:25:37.211Z,24.60
2023-03-18T11:26:37.144Z,25.40
2023-03-18T11:27:37.224Z,24.30
2023-03-18T11:28:37.123Z,24.70
2023-03-18T11:29:37.146Z,23.30
2023-03-18T11:30:37.121Z,23.50
2023-03-18T11:31:37.185Z,23.30
2023-03-18T11:32:37.211Z,22.60
2023-03-18T11:33:37.265Z,22.50
2023-03-18T11:34:37.037Z,23.20
2023-03-18T11:35:37.089Z,23.60
2023-03-18T11:36:37.008Z,24.10
2023-03-18T11:37:37.036Z,23.80
2023-03-18T11:38:37.013Z,24.00
2023-03-18T11:39:37.016Z,24.70
2023-03-18T11:40:36.988Z,23.70
2023-03-18T11:41:36.993Z,25.60
2023-03-18T11:42:36.927Z,24.10
2023-03-18T11:43:36.939Z,23.20
2023-03-18T11:44:36.932Z,23.70
2023-03-18T11:45:36.964Z,22.80
2023-03-18T11:46:36.951Z,23.40
2023-03-18T11:47:36.953Z,23.90
2023-03-18T11:48:36.990Z,24.30
2023-03-18T11:49:36.859Z,23.30
2023-03-18T11:50:36.845Z,22.20
2023-03-18T11:51:36.873Z,22.60
2023-03-18T11:52:36.822Z,24.50
2023-03-18T11:53:36.840Z,25.00
2023-03-18T11:54:36.785Z,24.80
2023-03-18T11:55:36.808Z,23.10
2023-03-18T11:56:36.744Z,24.40
2023-03-18T11:57:36.882Z,23.00
2023-03-18T11:58:36.739Z,24.50
2023-03-18T11:59:36.787Z,23.70
2023-03-18T12:00:36.695Z,24.10
2023-03-18T12:01:36.772Z,24.20
2023-03-18T12:02:36.695Z,24.50
2023-03-18T12:03:36.819Z,21.80
2023-03-18T12:04:40.823Z,21.20
2023-03-18T12:05:36.707Z,21.40
2023-03-18T12:06:36.606Z,21.90
2023-03-18T12:07:38.252Z,22.20
2023-03-18T12:08:36.582Z,21.80
2023-03-18T12:09:36.634Z,21.60
2023-03-18T12:10:36.590Z,19.30
2023-03-18T12:11:36.568Z,21.00
2023-03-18T12:12:36.556Z,20.20
2023-03-18T12:13:37.645Z,19.30
2023-03-18T12:14:36.501Z,18.40
2023-03-18T12:15:36.551Z,17.50
2023-03-18T12:16:36.576Z,17.60
2023-03-18T12:17:36.519Z,17.90
2023-03-18T12:18:36.454Z,17.30
2023-03-18T12:19:36.488Z,17.30
2023-03-18T12:20:36.434Z,17.60
2023-03-18T12:21:36.542Z,18.30
2023-03-18T12:22:36.420Z,18.30
2023-03-18T12:23:36.415Z,20.10
2023-03-18T12:24:36.410Z,19.40
2023-03-18T12:25:36.411Z,17.80
2023-03-18T12:26:36.355Z,17.70
2023-03-18T12:27:36.801Z,17.70
2023-03-18T12:28:36.329Z,18.30
2023-03-18T12:29:36.518Z,18.50
2023-03-18T12:30:36.332Z,18.50
2023-03-18T12:31:36.344Z,18.90
2023-03-18T12:32:36.328Z,20.30
2023-03-18T12:33:36.336Z,19.20
2023-03-18T12:34:36.232Z,18.50
2023-03-18T12:35:36.538Z,19.60
2023-03-18T12:36:36.210Z,18.10
2023-03-18T12:37:36.231Z,18.10
2023-03-18T12:38:36.218Z,18.90
2023-03-18T12:39:36.241Z,19.20
2023-03-18T12:40:36.194Z,18.50
2023-03-18T12:41:37.294Z,18.90
2023-03-18T12:42:36.134Z,19.00
2023-03-18T12:43:36.181Z,17.80
2023-03-18T12:44:36.105Z,17.70
2023-03-18T12:45:36.211Z,18.30
2023-03-18T12:46:36.111Z,19.20
2023-03-18T12:47:37.282Z,17.60
2023-03-18T12:48:44.214Z,17.60
2023-03-18T12:49:37.068Z,17.40
2023-03-18T12:50:36.055Z,17.60
2023-03-18T12:51:36.168Z,18.30
2023-03-18T12:52:36.051Z,18.90
2023-03-18T12:53:36.058Z,19.10
2023-03-18T12:54:35.977Z,18.50
2023-03-18T12:55:36.045Z,18.30
2023-03-18T12:56:35.949Z,17.80